Time;durP1;ratioP1;P1;durP2;ratioP2;P2;SDS_P1;SDS_P2;PMS_P1;PMS_P2;Temp;Humidity;BMP_temperature;BMP_pressure;BME280_temperature;BME280_humidity;BME280_pressure;Samples;Min_cycle;Max_cycle;Signal;HPM_P1;HPM_P2
2022/10/07 00:03:07;;;;;;;22.90;9.32;;;;;;;5.00;100.00;102566.50;10360965;28;20089;-78
2022/10/07 00:08:07;;;;;;;22.27;8.65;;;;;;;5.04;100.00;102565.13;10360998;28;20559;-78
2022/10/07 00:13:08;;;;;;;16.98;8.35;;;;;;;4.98;100.00;102563.75;10358805;28;20034;-78
2022/10/07 00:18:09;;;;;;;24.25;7.95;;;;;;;4.96;100.00;102569.56;10361370;28;20049;-78
2022/10/07 00:23:10;;;;;;;18.15;9.10;;;;;;;5.01;100.00;102557.97;10360962;28;20137;-78
2022/10/07 00:28:10;;;;;;;16.33;7.13;;;;;;;5.03;100.00;102560.69;10359912;28;20129;-78
2022/10/07 00:33:11;;;;;;;16.45;8.27;;;;;;;5.03;100.00;102558.09;10359543;28;20033;-78
2022/10/07 00:38:11;;;;;;;26.33;8.82;;;;;;;5.02;100.00;102561.47;10358616;28;20037;-79
2022/10/07 00:43:23;;;;;;;16.92;7.30;;;;;;;4.90;100.00;102548.22;10360322;28;20048;-78
2022/10/07 00:48:26;;;;;;;16.57;8.33;;;;;;;4.88;100.00;102540.28;10355692;28;20073;-79
2022/10/07 00:53:28;;;;;;;23.42;8.15;;;;;;;4.84;100.00;102533.88;10339413;28;20046;-78
2022/10/07 00:58:29;;;;;;;21.45;7.43;;;;;;;4.81;100.00;102532.66;10340184;28;20449;-79
2022/10/07 01:03:30;;;;;;;15.20;6.72;;;;;;;4.67;100.00;102534.81;10340144;28;20038;-78
2022/10/07 01:08:30;;;;;;;17.25;7.60;;;;;;;4.69;100.00;102527.19;10357868;28;20038;-79
2022/10/07 01:13:41;;;;;;;19.55;8.25;;;;;;;4.73;100.00;102516.34;10357176;28;20065;-79
2022/10/07 01:18:46;;;;;;;18.67;7.68;;;;;;;4.72;100.00;102519.72;10341773;28;20034;-79
2022/10/07 01:24:05;;;;;;;18.73;7.55;;;;;;;4.68;100.00;102517.59;10329686;28;20128;-80
2022/10/07 01:29:36;;;;;;;17.25;7.75;;;;;;;4.69;100.00;102506.44;10357264;28;20050;-79
2022/10/07 01:34:37;;;;;;;15.77;6.97;;;;;;;4.67;100.00;102495.00;10341807;28;20132;-79
2022/10/07 01:39:41;;;;;;;26.13;9.98;;;;;;;4.67;100.00;102485.53;10355670;28;20029;-79
2022/10/07 01:44:43;;;;;;;16.33;6.85;;;;;;;4.60;100.00;102488.28;10340945;28;20053;-79
2022/10/07 01:49:43;;;;;;;25.40;5.97;;;;;;;4.65;100.00;102480.97;10357458;28;20061;-79
2022/10/07 01:54:43;;;;;;;24.65;8.40;;;;;;;4.69;100.00;102464.94;10358023;28;20446;-79
2022/10/07 02:00:05;;;;;;;21.00;8.38;;;;;;;4.65;100.00;102458.53;10357194;28;20084;-78
2022/10/07 02:05:19;;;;;;;24.20;10.18;;;;;;;4.59;100.00;102460.53;10346755;28;20050;-78
2022/10/07 02:10:26;;;;;;;16.25;6.68;;;;;;;4.53;100.00;102453.06;10362440;28;20045;-79
2022/10/07 02:15:31;;;;;;;21.85;7.88;;;;;;;4.50;100.00;102442.41;10362744;28;20429;-78
2022/10/07 02:20:33;;;;;;;15.95;8.05;;;;;;;4.49;100.00;102429.28;10362806;28;20100;-79
2022/10/07 02:25:35;;;;;;;18.63;8.43;;;;;;;4.46;100.00;102427.31;10346786;28;20069;-78
2022/10/07 02:30:36;;;;;;;17.25;7.80;;;;;;;4.46;100.00;102423.78;10330233;28;20042;-78
2022/10/07 02:35:41;;;;;;;19.67;8.07;;;;;;;4.44;100.00;102415.88;10346641;28;20479;-78
2022/10/07 02:40:54;;;;;;;21.70;8.57;;;;;;;4.41;100.00;102415.59;10336399;28;20037;-79
2022/10/07 02:46:00;;;;;;;27.60;9.93;;;;;;;4.46;100.00;102408.22;10344728;28;20425;-78
2022/10/07 02:51:02;;;;;;;28.38;9.35;;;;;;;4.38;100.00;102399.72;10346659;28;20038;-78
2022/10/07 02:56:04;;;;;;;23.48;8.48;;;;;;;4.32;100.00;102397.44;10328754;28;20084;-79
2022/10/07 03:01:04;;;;;;;18.77;9.82;;;;;;;4.32;100.00;102399.13;10347032;28;20077;-79
2022/10/07 03:06:07;;;;;;;19.98;9.27;;;;;;;4.29;100.00;102389.38;10355025;28;20452;-79
2022/10/07 03:11:07;;;;;;;31.90;8.05;;;;;;;4.30;100.00;102385.09;10360743;28;20053;-79
2022/10/07 03:16:08;;;;;;;24.00;8.95;;;;;;;4.23;100.00;102374.16;10361222;28;20487;-80
2022/10/07 03:21:08;;;;;;;31.27;7.88;;;;;;;4.31;100.00;102374.88;10362482;28;20048;-80
2022/10/07 03:26:09;;;;;;;20.58;11.38;;;;;;;4.30;100.00;102367.84;10360336;28;20536;-78
2022/10/07 03:31:10;;;;;;;22.73;9.18;;;;;;;4.28;100.00;102365.91;10328240;28;20778;-79
2022/10/07 03:36:12;;;;;;;23.67;10.48;;;;;;;4.26;100.00;102360.53;10362337;28;20394;-78
2022/10/07 03:41:12;;;;;;;22.03;8.27;;;;;;;4.28;100.00;102360.72;10359656;28;20065;-77
2022/10/07 03:46:13;;;;;;;24.73;9.15;;;;;;;4.23;100.00;102356.00;10358275;28;20518;-80
2022/10/07 03:51:13;;;;;;;22.38;7.68;;;;;;;4.22;100.00;102350.66;10360615;28;20058;-80
2022/10/07 03:56:14;;;;;;;23.90;8.98;;;;;;;4.21;100.00;102348.81;10358644;28;20069;-78
2022/10/07 04:01:14;;;;;;;20.92;10.80;;;;;;;4.22;100.00;102345.47;10361180;28;20065;-78
2022/10/07 04:06:15;;;;;;;20.27;8.50;;;;;;;4.21;100.00;102344.56;10321827;28;20067;-78
2022/10/07 04:11:17;;;;;;;17.63;8.57;;;;;;;4.10;100.00;102335.72;10359423;28;20129;-80
2022/10/07 04:16:17;;;;;;;19.30;9.60;;;;;;;4.00;100.00;102326.94;10318742;28;20390;-78
2022/10/07 04:21:18;;;;;;;20.38;8.98;;;;;;;4.02;100.00;102328.88;10340782;28;20069;-78
2022/10/07 04:26:18;;;;;;;15.20;6.88;;;;;;;3.85;100.00;102322.06;10358434;28;20070;-79
2022/10/07 04:31:19;;;;;;;26.15;8.77;;;;;;;3.86;100.00;102330.75;10357844;28;20113;-79
2022/10/07 04:36:19;;;;;;;17.75;7.80;;;;;;;3.93;100.00;102331.50;10355492;28;20038;-79
2022/10/07 04:41:20;;;;;;;22.02;9.00;;;;;;;3.86;100.00;102323.91;10357331;28;20104;-79
2022/10/07 04:46:24;;;;;;;16.00;8.50;;;;;;;3.81;100.00;102322.53;10351402;28;20053;-78
2022/10/07 04:51:25;;;;;;;21.13;7.97;;;;;;;3.72;100.00;102321.63;10347896;28;20045;-78
2022/10/07 04:56:27;;;;;;;22.52;10.43;;;;;;;3.72;100.00;102319.94;10354727;28;20046;-79
2022/10/07 05:01:27;;;;;;;23.90;9.45;;;;;;;3.80;100.00;102313.84;10354565;28;20042;-79
2022/10/07 05:06:28;;;;;;;18.33;8.55;;;;;;;3.79;100.00;102303.34;10356864;28;20044;-78
2022/10/07 05:11:28;;;;;;;17.17;8.82;;;;;;;3.74;100.00;102296.78;10355584;28;20042;-80
2022/10/07 05:16:29;;;;;;;18.70;8.40;;;;;;;3.67;100.00;102303.03;10354294;28;20037;-78
2022/10/07 05:21:29;;;;;;;23.70;11.13;;;;;;;3.66;100.00;102299.53;10357206;28;20088;-78
2022/10/07 05:26:30;;;;;;;19.08;7.78;;;;;;;3.63;100.00;102293.13;10355337;28;20041;-78
2022/10/07 05:31:30;;;;;;;18.27;7.25;;;;;;;3.60;100.00;102291.19;10355141;28;20069;-78
2022/10/07 05:36:31;;;;;;;17.42;8.27;;;;;;;3.69;100.00;102292.84;10356100;28;20514;-77
2022/10/07 05:41:31;;;;;;;24.02;7.95;;;;;;;3.65;100.00;102294.19;10359767;28;20095;-78
2022/10/07 05:46:32;;;;;;;13.38;7.60;;;;;;;3.71;100.00;102289.63;10363962;28;20617;-78
2022/10/07 05:51:32;;;;;;;20.13;8.43;;;;;;;3.74;100.00;102279.56;10364698;28;20041;-78
2022/10/07 05:56:35;;;;;;;16.45;7.38;;;;;;;3.75;100.00;102275.31;10362492;28;20565;-78
2022/10/07 06:01:36;;;;;;;17.70;9.23;;;;;;;3.71;100.00;102278.38;10350404;28;20735;-77
2022/10/07 06:06:37;;;;;;;21.15;8.20;;;;;;;3.73;100.00;102275.16;10345578;28;20038;-78
2022/10/07 06:16:56;;;;;;;20.10;7.72;;;;;;;3.92;100.00;102274.34;10362229;28;20042;-77
2022/10/07 06:21:57;;;;;;;14.45;7.82;;;;;;;4.13;100.00;102279.78;10335446;28;20069;-79
2022/10/07 06:26:58;;;;;;;15.38;8.50;;;;;;;4.26;100.00;102281.13;10362722;28;20091;-78
2022/10/07 06:31:58;;;;;;;19.58;8.82;;;;;;;4.39;100.00;102278.00;10364649;28;20040;-77
2022/10/07 06:36:59;;;;;;;9.63;6.20;;;;;;;4.51;100.00;102275.69;10360144;28;20034;-88
2022/10/07 06:42:00;;;;;;;19.55;6.43;;;;;;;4.60;100.00;102280.81;10375937;28;20436;-77
2022/10/07 06:47:01;;;;;;;11.10;6.38;;;;;;;4.77;100.00;102281.50;10363884;28;20052;-77
2022/10/07 06:52:01;;;;;;;21.88;7.32;;;;;;;5.04;100.00;102275.38;10360933;28;20394;-77
2022/10/07 06:57:02;;;;;;;25.30;6.85;;;;;;;5.75;100.00;102273.09;10362208;28;20064;-77
2022/10/07 07:02:03;;;;;;;10.30;4.93;;;;;;;6.06;100.00;102280.16;10361420;28;20029;-77
2022/10/07 07:07:04;;;;;;;12.02;5.90;;;;;;;6.15;100.00;102278.38;10362018;28;20038;-77
2022/10/07 07:12:05;;;;;;;17.85;6.05;;;;;;;6.16;100.00;102275.91;10362741;28;20057;-76
2022/10/07 07:17:05;;;;;;;11.13;5.22;;;;;;;6.17;100.00;102259.53;10343647;28;20045;-77
2022/10/07 07:22:07;;;;;;;10.45;4.70;;;;;;;6.46;100.00;102263.75;10361681;28;20493;-77
2022/10/07 07:27:07;;;;;;;13.70;4.32;;;;;;;7.01;100.00;102265.78;10358888;28;20065;-77
2022/10/07 07:32:08;;;;;;;23.33;9.82;;;;;;;7.47;100.00;102264.41;10360141;28;20124;-79
2022/10/07 07:37:09;;;;;;;16.70;4.40;;;;;;;7.89;100.00;102267.78;10360073;28;20563;-80
2022/10/07 07:42:09;;;;;;;12.63;3.90;;;;;;;8.21;100.00;102266.84;10362507;28;20037;-79
2022/10/07 07:47:10;;;;;;;11.82;4.28;;;;;;;8.59;100.00;102269.78;10343344;28;20117;-79
2022/10/07 07:52:10;;;;;;;9.48;3.55;;;;;;;8.70;100.00;102257.59;10360542;28;20060;-80
2022/10/07 07:57:11;;;;;;;12.70;4.20;;;;;;;8.84;100.00;102259.56;10360893;28;20042;-78
2022/10/07 08:02:11;;;;;;;12.60;3.72;;;;;;;9.24;100.00;102253.84;10360025;28;20042;-79
2022/10/07 08:07:12;;;;;;;14.98;3.60;;;;;;;9.54;100.00;102247.41;10360565;28;20049;-77
2022/10/07 08:12:13;;;;;;;5.18;2.90;;;;;;;9.95;100.00;102253.81;10358273;28;20048;-80
2022/10/07 08:17:16;;;;;;;9.48;3.80;;;;;;;10.45;100.00;102249.50;10360244;28;20359;-78
2022/10/07 08:22:17;;;;;;;12.35;3.22;;;;;;;10.85;99.82;102247.03;10358977;28;20046;-80
2022/10/07 08:27:18;;;;;;;13.18;3.65;;;;;;;11.21;96.54;102244.22;10360440;28;20030;-79
2022/10/07 08:32:18;;;;;;;14.95;4.30;;;;;;;11.68;95.05;102229.78;10360232;28;20117;-78
2022/10/07 08:37:19;;;;;;;15.00;4.13;;;;;;;12.03;92.91;102235.53;10357688;28;20128;-79
2022/10/07 08:42:26;;;;;;;16.60;4.03;;;;;;;12.46;86.35;102230.34;10360969;28;20030;-78
2022/10/07 08:47:33;;;;;;;14.25;3.63;;;;;;;12.82;84.95;102218.47;10359747;28;20085;-79
2022/10/07 08:52:36;;;;;;;12.82;3.95;;;;;;;13.14;84.66;102209.84;10360886;28;20030;-79
2022/10/07 08:57:53;;;;;;;9.23;3.30;;;;;;;13.51;78.92;102204.09;10357998;28;20502;-78
2022/10/07 09:03:06;;;;;;;16.60;6.07;;;;;;;13.82;76.80;102201.41;10333275;28;20034;-80
2022/10/07 09:08:27;;;;;;;28.55;11.55;;;;;;;14.34;75.33;102190.19;10348464;28;20050;-79
2022/10/07 09:13:33;;;;;;;17.05;4.63;;;;;;;14.66;71.77;102183.97;10335643;28;20042;-85
2022/10/07 09:18:43;;;;;;;8.88;3.92;;;;;;;14.94;70.72;102185.41;10348667;28;20045;-82
2022/10/07 09:23:44;;;;;;;24.85;4.60;;;;;;;15.33;71.23;102175.88;10357399;28;20398;-81
2022/10/07 09:28:45;;;;;;;16.48;4.72;;;;;;;15.53;67.81;102161.91;10364502;28;20044;-80
2022/10/07 09:33:48;;;;;;;12.98;4.63;;;;;;;16.29;67.27;102168.09;10363819;28;20041;-84
2022/10/07 09:38:53;;;;;;;9.07;3.70;;;;;;;19.05;55.16;102145.25;10363183;28;20045;-82
2022/10/07 09:44:07;;;;;;;10.05;2.83;;;;;;;20.49;51.90;102146.88;10325450;28;20048;-81
2022/10/07 09:49:27;;;;;;;15.63;4.78;;;;;;;21.40;49.89;102145.63;10356899;28;20054;-81
2022/10/07 09:54:29;;;;;;;16.67;3.05;;;;;;;23.50;45.66;102133.56;10362739;28;20096;-76
2022/10/07 09:59:33;;;;;;;14.27;4.70;;;;;;;23.96;40.90;102135.03;10346187;28;20452;-80
2022/10/07 10:04:36;;;;;;;11.02;3.78;;;;;;;23.26;42.83;102127.00;10347340;28;20053;-81
2022/10/07 10:09:36;;;;;;;12.88;3.72;;;;;;;24.14;41.42;102118.31;10330383;28;20041;-78
2022/10/07 10:14:55;;;;;;;9.37;3.17;;;;;;;24.49;38.79;102107.09;10347203;28;20069;-78
2022/10/07 10:20:16;;;;;;;9.68;3.67;;;;;;;26.03;36.74;102103.59;10333896;28;20041;-78
2022/10/07 10:31:31;;;;;;;16.13;3.97;;;;;;;24.55;37.37;102088.41;10365383;28;20034;-80
2022/10/07 10:36:32;;;;;;;13.15;3.50;;;;;;;24.61;35.54;102077.75;10358530;28;20120;-77
2022/10/07 10:41:43;;;;;;;19.57;3.90;;;;;;;24.10;37.30;102071.94;10342401;28;20116;-77
2022/10/07 10:47:16;;;;;;;;;;;;;;;;;;;;;
2022/10/07 10:52:24;;;;;;;14.43;3.55;;;;;;;23.46;37.53;102067.63;10356855;28;20125;-76
2022/10/07 10:57:53;;;;;;;11.68;3.47;;;;;;;22.77;40.51;102063.00;10361463;28;20026;-80
2022/10/07 11:03:06;;;;;;;14.05;3.33;;;;;;;22.78;38.68;102048.78;10361188;28;20030;-78
2022/10/07 11:08:11;;;;;;;15.52;3.78;;;;;;;23.81;39.18;102034.16;10362161;28;20125;-77
2022/10/07 11:13:26;;;;;;;12.35;3.33;;;;;;;23.71;38.53;102027.84;10362390;28;20038;-78
2022/10/07 11:18:41;;;;;;;10.93;3.72;;;;;;;24.10;38.52;102014.88;10361831;28;20052;-77
2022/10/07 11:23:50;;;;;;;12.50;4.43;;;;;;;24.19;38.78;101999.84;10345641;28;20180;-79
2022/10/07 11:28:51;;;;;;;11.48;4.70;;;;;;;24.78;36.02;101999.41;10362419;28;20032;-81
2022/10/07 11:34:13;;;;;;;16.52;3.58;;;;;;;24.05;36.78;101990.78;10361904;28;20044;-80
2022/10/07 11:39:14;;;;;;;6.78;2.85;;;;;;;24.48;37.85;101984.91;10360899;28;20124;-80
2022/10/07 11:44:19;;;;;;;13.57;5.07;;;;;;;25.06;36.70;101970.09;10362556;28;20045;-80
2022/10/07 11:49:53;;;;;;;6.78;2.63;;;;;;;25.62;34.99;101957.84;10360103;28;20045;-77
2022/10/07 11:55:20;;;;;;;6.55;2.85;;;;;;;25.19;35.11;101955.88;10328762;28;20446;-80
2022/10/07 12:00:22;;;;;;;8.55;4.03;;;;;;;25.40;34.14;101946.13;10336218;28;20054;-80
2022/10/07 12:05:35;;;;;;;11.18;2.75;;;;;;;25.35;34.67;101927.38;10357178;28;20033;-76
2022/10/07 12:10:35;;;;;;;14.27;3.50;;;;;;;23.64;36.57;101921.75;10360671;28;20041;-79
2022/10/07 12:15:43;;;;;;;11.00;3.93;;;;;;;24.20;36.25;101917.81;10360518;28;20045;-78
2022/10/07 12:20:49;;;;;;;10.45;4.25;;;;;;;23.67;36.80;101895.06;10340360;28;20052;-83
2022/10/07 12:26:25;;;;;;;9.18;2.85;;;;;;;24.86;36.50;101887.91;10359812;28;20775;-77
2022/10/07 12:31:31;;;;;;;18.25;2.53;;;;;;;25.49;34.18;101881.88;10256063;28;20069;-82
2022/10/07 12:36:32;;;;;;;11.68;2.92;;;;;;;24.62;34.71;101875.28;10357724;28;20497;-80
2022/10/07 12:41:35;;;;;;;7.25;2.58;;;;;;;24.63;34.77;101866.38;10359119;28;20168;-80
2022/10/07 12:46:49;;;;;;;12.02;3.65;;;;;;;24.27;36.98;101866.16;10358428;28;20413;-82
2022/10/07 12:51:52;;;;;;;16.25;5.25;;;;;;;24.75;34.60;101841.47;10358568;28;20046;-83
2022/10/07 12:56:53;;;;;;;12.80;4.07;;;;;;;24.86;33.66;101845.06;10325445;28;20121;-80
2022/10/07 13:02:07;;;;;;;6.00;2.58;;;;;;;24.78;35.23;101831.69;10355439;28;20115;-80
2022/10/07 13:07:16;;;;;;;12.65;3.28;;;;;;;24.82;34.23;101819.19;10358673;28;20567;-80
2022/10/07 13:12:39;;;;;;;13.07;3.33;;;;;;;25.03;35.80;101814.78;10356789;28;20073;-79
2022/10/07 13:17:43;;;;;;;10.50;3.25;;;;;;;25.87;33.73;101807.72;10343118;28;20053;-81
2022/10/07 13:22:46;;;;;;;28.80;11.40;;;;;;;25.66;33.71;101808.63;10355105;28;20049;-83
2022/10/07 13:27:53;;;;;;;9.93;4.47;;;;;;;25.73;33.89;101810.41;10341977;28;20372;-78
2022/10/07 13:32:54;;;;;;;14.65;4.00;;;;;;;26.02;31.76;101789.84;10339620;28;20088;-77
2022/10/07 13:37:54;;;;;;;11.57;3.20;;;;;;;25.52;33.55;101784.53;10357733;28;20079;-77
2022/10/07 13:42:59;;;;;;;6.40;2.57;;;;;;;25.08;33.28;101775.53;10357848;28;20042;-79
2022/10/07 13:48:00;;;;;;;14.90;4.47;;;;;;;24.38;33.91;101767.25;10323001;28;20073;-81
2022/10/07 13:53:00;;;;;;;9.33;3.87;;;;;;;24.49;36.21;101762.84;10356817;28;20113;-78
2022/10/07 13:58:03;;;;;;;4.90;2.08;;;;;;;23.57;35.65;101757.81;10338788;28;20041;-79
2022/10/07 14:03:14;;;;;;;14.57;5.13;;;;;;;23.30;37.79;101749.59;10332586;28;20494;-79
2022/10/07 14:08:20;;;;;;;10.17;2.80;;;;;;;23.54;36.05;101750.69;10347942;28;20038;-78
2022/10/07 14:13:20;;;;;;;9.52;3.97;;;;;;;24.21;35.74;101737.75;10339189;28;20276;-78
2022/10/07 14:18:21;;;;;;;9.98;3.78;;;;;;;23.44;37.20;101735.47;10360500;28;20069;-79
2022/10/07 14:23:30;;;;;;;9.47;3.27;;;;;;;23.49;37.40;101725.72;10362314;28;20540;-81
2022/10/07 14:28:31;;;;;;;13.50;2.80;;;;;;;23.69;36.49;101715.16;10345057;28;20029;-80
2022/10/07 14:39:23;;;;;;;9.18;2.63;;;;;;;22.27;38.90;101702.19;10361702;28;20038;-82
2022/10/07 14:44:24;;;;;;;9.48;3.63;;;;;;;21.27;41.63;101698.94;10309033;28;20058;-80
2022/10/07 14:49:27;;;;;;;12.93;3.90;;;;;;;21.11;43.20;101700.47;10344755;28;20042;-80
2022/10/07 14:54:27;;;;;;;8.80;2.03;;;;;;;20.80;44.25;101697.25;10360808;28;20128;-80
2022/10/07 14:59:28;;;;;;;10.88;2.53;;;;;;;21.52;42.56;101691.34;10362229;28;20045;-81
2022/10/07 15:04:29;;;;;;;8.73;2.30;;;;;;;21.61;40.79;101683.50;10358277;28;20048;-79
2022/10/07 15:09:29;;;;;;;4.68;2.10;;;;;;;21.29;44.68;101683.03;10360089;28;20060;-79
2022/10/07 15:14:30;;;;;;;9.65;3.47;;;;;;;19.08;49.00;101674.00;10341987;28;20128;-76
2022/10/07 15:19:31;;;;;;;8.23;2.83;;;;;;;18.11;52.00;101658.97;10360325;28;20509;-76
2022/10/07 15:24:33;;;;;;;10.60;3.03;;;;;;;17.88;51.35;101659.16;10359775;28;20048;-77
2022/10/07 15:29:33;;;;;;;10.05;2.55;;;;;;;17.50;53.28;101652.69;10360389;28;20045;-77
2022/10/07 15:34:34;;;;;;;11.70;2.15;;;;;;;17.14;53.46;101648.88;10360848;28;20446;-76
2022/10/07 15:39:34;;;;;;;14.13;4.30;;;;;;;16.34;58.48;101647.88;10360909;28;20162;-77
2022/10/07 15:44:35;;;;;;;12.45;3.45;;;;;;;16.12;61.39;101643.56;10358300;28;20080;-77
2022/10/07 15:49:35;;;;;;;7.97;2.20;;;;;;;15.97;60.28;101633.31;10359110;28;20141;-77
2022/10/07 15:54:36;;;;;;;11.50;2.45;;;;;;;15.60;63.21;101629.22;10360187;28;20200;-76
2022/10/07 15:59:37;;;;;;;18.67;4.50;;;;;;;15.08;66.53;101629.84;10341246;28;20042;-76
2022/10/07 16:04:39;;;;;;;12.63;4.05;;;;;;;14.52;68.63;101631.81;10358714;28;20042;-75
2022/10/07 16:09:40;;;;;;;9.02;2.55;;;;;;;14.07;72.20;101630.72;10359315;28;20045;-76
2022/10/07 16:14:41;;;;;;;12.25;3.50;;;;;;;13.67;76.76;101625.38;10357714;28;20494;-76
2022/10/07 16:19:41;;;;;;;12.70;2.60;;;;;;;13.39;78.08;101619.66;10359585;28;20080;-77
2022/10/07 16:24:42;;;;;;;10.82;3.80;;;;;;;13.08;81.16;101623.41;10359656;28;20057;-77
2022/10/07 16:35:01;;;;;;;10.13;3.28;;;;;;;12.33;85.49;101617.03;10355759;28;20042;-76
2022/10/07 16:40:02;;;;;;;11.10;3.58;;;;;;;12.04;87.59;101619.00;10356770;28;20124;-76
2022/10/07 16:45:03;;;;;;;14.00;4.43;;;;;;;11.72;89.84;101617.25;10357492;28;20037;-76
2022/10/07 16:50:04;;;;;;;14.43;3.00;;;;;;;11.52;91.97;101613.50;10357738;28;20095;-76
2022/10/07 16:55:05;;;;;;;13.65;4.70;;;;;;;11.29;92.79;101607.88;10359537;28;20509;-77
2022/10/07 17:00:06;;;;;;;13.45;2.85;;;;;;;11.08;93.46;101616.31;10358690;28;20041;-77
2022/10/07 17:05:08;;;;;;;11.43;2.53;;;;;;;10.83;95.19;101611.38;10358630;28;20046;-76
2022/10/07 17:10:09;;;;;;;16.67;4.17;;;;;;;10.57;96.73;101618.59;10357742;28;20046;-77
2022/10/07 17:15:09;;;;;;;5.85;3.00;;;;;;;10.39;97.95;101614.06;10356249;28;20045;-77
2022/10/07 17:20:10;;;;;;;12.88;3.90;;;;;;;10.21;98.68;101615.53;10356285;28;20062;-76
2022/10/07 17:25:11;;;;;;;10.35;3.35;;;;;;;10.05;99.97;101618.91;10357730;28;20034;-77
2022/10/07 17:30:15;;;;;;;16.17;2.92;;;;;;;9.87;100.00;101614.34;10354251;28;20061;-76
2022/10/07 17:35:15;;;;;;;14.32;3.28;;;;;;;9.70;100.00;101619.41;10355475;28;20506;-77
2022/10/07 17:40:16;;;;;;;14.32;3.58;;;;;;;9.49;100.00;101626.81;10366162;28;20038;-77
2022/10/07 17:45:16;;;;;;;15.68;4.30;;;;;;;9.36;100.00;101629.44;10362152;28;20041;-77
2022/10/07 17:50:17;;;;;;;14.27;4.03;;;;;;;9.24;100.00;101617.38;10345917;28;20038;-77
2022/10/07 17:55:17;;;;;;;18.35;3.60;;;;;;;9.12;100.00;101627.03;10347175;28;20069;-77
2022/10/07 18:00:18;;;;;;;16.33;3.53;;;;;;;9.02;100.00;101633.31;10343292;28;20065;-78
2022/10/07 18:05:19;;;;;;;22.38;4.28;;;;;;;8.99;100.00;101627.91;10362869;28;20049;-78
2022/10/07 18:10:19;;;;;;;11.63;3.75;;;;;;;8.92;100.00;101624.00;10363075;28;20034;-78
2022/10/07 18:15:20;;;;;;;15.90;3.67;;;;;;;8.80;100.00;101625.78;10363230;28;20038;-77
2022/10/07 18:20:21;;;;;;;13.40;3.35;;;;;;;8.67;100.00;101629.25;10363702;28;20073;-78
2022/10/07 18:25:22;;;;;;;8.10;2.80;;;;;;;8.61;100.00;101623.63;10359976;28;20062;-76
2022/10/07 18:30:23;;;;;;;14.18;4.30;;;;;;;8.56;100.00;101625.94;10363990;28;20541;-77
2022/10/07 18:35:23;;;;;;;14.48;4.07;;;;;;;8.55;100.00;101631.97;10363735;28;20052;-77
2022/10/07 18:40:24;;;;;;;17.15;4.47;;;;;;;8.55;100.00;101631.97;10364065;28;20125;-77
2022/10/07 18:45:24;;;;;;;12.43;2.88;;;;;;;8.44;100.00;101623.34;10360456;28;20401;-77
2022/10/07 18:50:25;;;;;;;16.30;8.25;;;;;;;8.42;100.00;101622.34;10344968;28;20038;-77
2022/10/07 18:55:25;;;;;;;11.00;2.90;;;;;;;8.43;100.00;101621.53;10362577;28;20129;-77
2022/10/07 19:00:26;;;;;;;22.10;4.60;;;;;;;8.42;100.00;101616.25;10361578;28;20058;-77
2022/10/07 19:05:28;;;;;;;11.05;3.53;;;;;;;8.48;100.00;101616.66;10365379;28;20046;-77
2022/10/07 19:10:28;;;;;;;13.82;6.13;;;;;;;8.45;100.00;101608.63;10362127;28;20046;-77
2022/10/07 19:15:29;;;;;;;20.80;4.93;;;;;;;8.49;100.00;101608.06;10358681;28;20064;-78
2022/10/07 19:20:29;;;;;;;15.88;4.05;;;;;;;8.37;100.00;101605.47;10362357;28;20112;-77
2022/10/07 19:25:45;;;;;;;16.20;3.47;;;;;;;8.21;100.00;101594.00;10342574;28;20490;-77
2022/10/07 19:30:46;;;;;;;14.32;4.53;;;;;;;8.11;100.00;101599.38;10355094;28;20506;-77
2022/10/07 19:35:52;;;;;;;13.15;3.58;;;;;;;8.02;100.00;101597.03;10359559;28;20057;-77
2022/10/07 19:40:53;;;;;;;20.23;4.30;;;;;;;7.96;100.00;101606.13;10360185;28;20379;-76
2022/10/07 19:45:59;;;;;;;22.98;4.80;;;;;;;7.96;100.00;101614.84;10359132;28;20081;-76
2022/10/07 19:51:00;;;;;;;12.90;3.53;;;;;;;7.97;100.00;101605.31;10340587;28;20046;-76
2022/10/07 19:56:03;;;;;;;15.00;4.00;;;;;;;7.89;100.00;101597.88;10359205;28;20026;-77
2022/10/07 20:01:07;;;;;;;16.52;3.95;;;;;;;7.91;100.00;101606.69;10340276;28;20397;-77
2022/10/07 20:06:08;;;;;;;11.20;3.30;;;;;;;7.98;100.00;101607.13;10358937;28;20052;-77
2022/10/07 20:11:09;;;;;;;15.05;4.82;;;;;;;7.99;100.00;101596.81;10337352;28;20077;-77
2022/10/07 20:16:17;;;;;;;9.90;3.75;;;;;;;7.98;100.00;101601.91;10361110;28;20042;-77
2022/10/07 20:21:22;;;;;;;13.73;4.22;;;;;;;7.96;100.00;101599.22;10359009;28;20482;-76
2022/10/07 20:26:24;;;;;;;15.13;4.22;;;;;;;7.98;100.00;101594.09;10356728;28;20443;-77
2022/10/07 20:31:27;;;;;;;16.02;5.78;;;;;;;7.94;100.00;101599.09;10357583;28;20394;-76
2022/10/07 20:36:29;;;;;;;16.27;5.22;;;;;;;8.05;100.00;101594.66;10359640;28;20101;-76
2022/10/07 20:46:50;;;;;;;27.65;11.30;;;;;;;8.31;100.00;101585.09;10348977;28;20042;-78
2022/10/07 20:51:52;;;;;;;11.95;5.93;;;;;;;8.36;100.00;101582.78;10355333;28;20045;-76
2022/10/07 20:56:53;;;;;;;12.70;5.13;;;;;;;8.41;100.00;101581.41;10357517;28;20049;-76
2022/10/07 21:01:55;;;;;;;10.60;4.63;;;;;;;8.34;100.00;101582.72;10339510;28;20042;-75
2022/10/07 21:06:56;;;;;;;17.35;5.80;;;;;;;8.31;100.00;101578.97;10355267;28;20046;-76
2022/10/07 21:11:57;;;;;;;11.88;4.32;;;;;;;8.44;100.00;101575.50;10363098;28;20482;-75
2022/10/07 21:16:58;;;;;;;14.82;4.07;;;;;;;8.41;100.00;101577.91;10344661;28;20042;-77
2022/10/07 21:21:59;;;;;;;13.07;5.18;;;;;;;8.33;100.00;101569.53;10369033;28;20033;-76
2022/10/07 21:27:01;;;;;;;10.25;3.40;;;;;;;8.12;100.00;101569.88;10371472;28;20697;-76
2022/10/07 21:32:02;;;;;;;17.10;4.35;;;;;;;8.08;100.00;101555.75;10369512;28;20053;-77
2022/10/07 21:37:03;;;;;;;11.93;3.90;;;;;;;8.12;100.00;101548.13;10351571;28;20133;-77
2022/10/07 21:42:04;;;;;;;12.32;3.67;;;;;;;8.08;100.00;101549.63;10370149;28;20042;-77
2022/10/07 21:47:04;;;;;;;16.98;4.22;;;;;;;8.11;100.00;101552.44;10371831;28;20046;-77
2022/10/07 21:52:05;;;;;;;13.65;5.60;;;;;;;8.02;100.00;101550.13;10368235;28;20129;-77
2022/10/07 21:57:05;;;;;;;23.58;4.35;;;;;;;8.17;100.00;101555.47;10367229;28;20083;-79
2022/10/07 22:02:07;;;;;;;14.25;3.97;;;;;;;8.20;100.00;101552.19;10369914;28;20212;-78
2022/10/07 22:12:29;;;;;;;19.60;4.47;;;;;;;8.25;100.00;101547.25;10353441;28;20034;-78
2022/10/07 22:17:33;;;;;;;14.18;5.00;;;;;;;8.12;100.00;101541.19;10368475;28;20120;-77
2022/10/07 22:22:34;;;;;;;11.82;4.35;;;;;;;8.17;100.00;101536.31;10365009;28;20046;-77
2022/10/07 22:27:34;;;;;;;14.68;4.57;;;;;;;8.38;100.00;101548.22;10359119;28;20177;-78
2022/10/07 22:32:35;;;;;;;14.18;3.88;;;;;;;8.45;100.00;101544.28;10363850;28;20474;-78
2022/10/07 22:37:36;;;;;;;14.88;4.15;;;;;;;8.38;100.00;101547.28;10363836;28;20521;-78
2022/10/07 22:42:36;;;;;;;12.40;4.00;;;;;;;8.29;100.00;101546.66;10363568;28;20042;-78
2022/10/07 22:47:43;;;;;;;14.43;5.25;;;;;;;8.22;100.00;101540.16;10362984;28;20120;-77
2022/10/07 22:52:44;;;;;;;19.98;5.10;;;;;;;8.04;100.00;101527.66;10363003;28;20050;-79
2022/10/07 22:57:45;;;;;;;15.88;4.80;;;;;;;8.16;100.00;101529.28;10345153;28;20074;-79
2022/10/07 23:02:45;;;;;;;11.55;3.15;;;;;;;8.11;100.00;101528.09;10362121;28;20125;-78
2022/10/07 23:07:46;;;;;;;13.77;4.40;;;;;;;8.14;100.00;101517.84;10361474;28;20045;-79
2022/10/07 23:12:46;;;;;;;12.30;3.20;;;;;;;8.06;100.00;101522.53;10361167;28;20125;-79
2022/10/07 23:17:47;;;;;;;10.27;4.30;;;;;;;7.90;100.00;101524.09;10361086;28;20048;-78
2022/10/07 23:22:48;;;;;;;12.23;3.70;;;;;;;7.79;100.00;101504.19;10357648;28;20052;-78
2022/10/07 23:27:49;;;;;;;13.57;5.50;;;;;;;7.71;100.00;101508.91;10342938;28;20041;-79
2022/10/07 23:32:49;;;;;;;14.07;3.83;;;;;;;7.66;100.00;101498.94;10363289;28;20449;-79
2022/10/07 23:37:50;;;;;;;13.15;4.05;;;;;;;7.54;100.00;101489.47;10343332;28;20084;-78